sensor_id;sensor_type;location;lat;lon;timestamp;temperature;humidity
10722;DHT22;5412;59.450;18.124;2024-01-16T00:01:18;-9.50;99.90
10722;DHT22;5412;59.450;18.124;2024-01-16T00:03:45;-9.30;99.90
10722;DHT22;5412;59.450;18.124;2024-01-16T00:06:11;-9.30;99.90
10722;DHT22;5412;59.450;18.124;2024-01-16T00:08:37;-9.20;99.90
10722;DHT22;5412;59.450;18.124;2024-01-16T00:11:03;-9.30;99.90
10722;DHT22;5412;59.450;18.124;2024-01-16T00:13:29;-9.20;99.90
10722;DHT22;5412;59.450;18.124;2024-01-16T00:15:55;-9.40;99.90
10722;DHT22;5412;59.450;18.124;2024-01-16T00:18:22;-9.20;99.90
10722;DHT22;5412;59.450;18.124;2024-01-16T00:20:48;-9.20;99.90
10722;DHT22;5412;59.450;18.124;2024-01-16T00:23:14;-9.20;99.90
10722;DHT22;5412;59.450;18.124;2024-01-16T00:25:40;-9.40;99.90
10722;DHT22;5412;59.450;18.124;2024-01-16T00:28:06;-9.40;99.90
10722;DHT22;5412;59.450;18.124;2024-01-16T00:30:32;-9.30;99.90
10722;DHT22;5412;59.450;18.124;2024-01-16T00:32:59;-9.40;99.90
10722;DHT22;5412;59.450;18.124;2024-01-16T00:35:25;-9.40;99.90
10722;DHT22;5412;59.450;18.124;2024-01-16T00:37:50;-9.60;99.90
10722;DHT22;5412;59.450;18.124;2024-01-16T00:40:16;-9.70;99.90
10722;DHT22;5412;59.450;18.124;2024-01-16T00:42:42;-9.60;99.90
10722;DHT22;5412;59.450;18.124;2024-01-16T00:45:08;-9.80;99.90
10722;DHT22;5412;59.450;18.124;2024-01-16T00:47:33;-9.90;99.90
10722;DHT22;5412;59.450;18.124;2024-01-16T00:49:59;-10.10;99.90
10722;DHT22;5412;59.450;18.124;2024-01-16T00:52:28;-10.10;99.90
10722;DHT22;5412;59.450;18.124;2024-01-16T00:54:54;-9.90;99.90
10722;DHT22;5412;59.450;18.124;2024-01-16T00:57:19;-9.80;99.90
10722;DHT22;5412;59.450;18.124;2024-01-16T00:59:46;-9.90;99.90
10722;DHT22;5412;59.450;18.124;2024-01-16T01:02:12;-10.00;99.90
10722;DHT22;5412;59.450;18.124;2024-01-16T01:04:38;-9.90;99.90
10722;DHT22;5412;59.450;18.124;2024-01-16T01:07:04;-9.90;99.90
10722;DHT22;5412;59.450;18.124;2024-01-16T01:09:32;-9.90;99.90
10722;DHT22;5412;59.450;18.124;2024-01-16T01:11:58;-9.80;99.90
10722;DHT22;5412;59.450;18.124;2024-01-16T01:14:24;-9.80;99.90
10722;DHT22;5412;59.450;18.124;2024-01-16T01:16:52;-9.80;99.90
10722;DHT22;5412;59.450;18.124;2024-01-16T01:19:18;-9.80;99.90
10722;DHT22;5412;59.450;18.124;2024-01-16T01:21:43;-9.90;99.90
10722;DHT22;5412;59.450;18.124;2024-01-16T01:24:09;-10.10;99.90
10722;DHT22;5412;59.450;18.124;2024-01-16T01:26:35;-10.10;99.90
10722;DHT22;5412;59.450;18.124;2024-01-16T01:29:01;-10.10;99.90
10722;DHT22;5412;59.450;18.124;2024-01-16T01:31:26;-10.10;99.90
10722;DHT22;5412;59.450;18.124;2024-01-16T01:33:52;-10.20;99.90
10722;DHT22;5412;59.450;18.124;2024-01-16T01:36:18;-10.30;99.90
10722;DHT22;5412;59.450;18.124;2024-01-16T01:38:43;-10.30;99.90
10722;DHT22;5412;59.450;18.124;2024-01-16T01:41:09;-10.30;99.90
10722;DHT22;5412;59.450;18.124;2024-01-16T01:43:37;-10.40;99.90
10722;DHT22;5412;59.450;18.124;2024-01-16T01:48:37;-10.40;99.90
10722;DHT22;5412;59.450;18.124;2024-01-16T01:51:03;-10.30;99.90
10722;DHT22;5412;59.450;18.124;2024-01-16T01:53:30;-10.20;99.90
10722;DHT22;5412;59.450;18.124;2024-01-16T01:55:56;-10.20;99.90
10722;DHT22;5412;59.450;18.124;2024-01-16T01:58:23;-10.40;99.90
10722;DHT22;5412;59.450;18.124;2024-01-16T02:00:49;-10.40;99.90
10722;DHT22;5412;59.450;18.124;2024-01-16T02:03:15;-10.50;99.90
10722;DHT22;5412;59.450;18.124;2024-01-16T02:05:40;-10.40;99.90
10722;DHT22;5412;59.450;18.124;2024-01-16T02:08:08;-10.40;99.90
10722;DHT22;5412;59.450;18.124;2024-01-16T02:10:36;-10.30;99.90
10722;DHT22;5412;59.450;18.124;2024-01-16T02:13:03;-10.40;99.90
10722;DHT22;5412;59.450;18.124;2024-01-16T02:15:29;-10.50;99.90
10722;DHT22;5412;59.450;18.124;2024-01-16T02:17:54;-10.60;99.90
10722;DHT22;5412;59.450;18.124;2024-01-16T02:20:20;-10.50;99.90
10722;DHT22;5412;59.450;18.124;2024-01-16T02:22:48;-10.60;99.90
10722;DHT22;5412;59.450;18.124;2024-01-16T02:25:15;-10.60;99.90
10722;DHT22;5412;59.450;18.124;2024-01-16T02:27:41;-10.50;99.90
10722;DHT22;5412;59.450;18.124;2024-01-16T02:30:07;-10.60;99.90
10722;DHT22;5412;59.450;18.124;2024-01-16T02:32:33;-10.80;99.90
10722;DHT22;5412;59.450;18.124;2024-01-16T02:34:58;-10.80;99.90
10722;DHT22;5412;59.450;18.124;2024-01-16T02:37:24;-10.80;99.90
10722;DHT22;5412;59.450;18.124;2024-01-16T02:39:50;-10.80;99.90
10722;DHT22;5412;59.450;18.124;2024-01-16T02:42:15;-10.70;99.90
10722;DHT22;5412;59.450;18.124;2024-01-16T02:44:41;-10.60;99.90
10722;DHT22;5412;59.450;18.124;2024-01-16T02:47:07;-10.50;99.90
10722;DHT22;5412;59.450;18.124;2024-01-16T02:49:33;-10.40;99.90
10722;DHT22;5412;59.450;18.124;2024-01-16T02:51:58;-10.40;99.90
10722;DHT22;5412;59.450;18.124;2024-01-16T02:54:24;-10.60;99.90
10722;DHT22;5412;59.450;18.124;2024-01-16T02:56:50;-10.60;99.90
10722;DHT22;5412;59.450;18.124;2024-01-16T02:59:16;-10.60;99.90
10722;DHT22;5412;59.450;18.124;2024-01-16T03:01:42;-10.50;99.90
10722;DHT22;5412;59.450;18.124;2024-01-16T03:04:08;-10.60;99.90
10722;DHT22;5412;59.450;18.124;2024-01-16T03:06:34;-10.70;99.90
10722;DHT22;5412;59.450;18.124;2024-01-16T03:09:00;-10.70;99.90
10722;DHT22;5412;59.450;18.124;2024-01-16T03:11:25;-10.60;99.90
10722;DHT22;5412;59.450;18.124;2024-01-16T03:13:52;-10.50;99.90
10722;DHT22;5412;59.450;18.124;2024-01-16T03:16:20;-10.60;99.90
10722;DHT22;5412;59.450;18.124;2024-01-16T03:18:46;-10.60;99.90
10722;DHT22;5412;59.450;18.124;2024-01-16T03:21:13;-10.90;99.90
10722;DHT22;5412;59.450;18.124;2024-01-16T03:23:38;-10.80;99.90
10722;DHT22;5412;59.450;18.124;2024-01-16T03:26:04;-10.90;99.90
10722;DHT22;5412;59.450;18.124;2024-01-16T03:28:30;-10.80;99.90
10722;DHT22;5412;59.450;18.124;2024-01-16T03:30:55;-10.90;99.90
10722;DHT22;5412;59.450;18.124;2024-01-16T03:33:21;-10.80;99.90
10722;DHT22;5412;59.450;18.124;2024-01-16T03:35:47;-10.70;99.90
10722;DHT22;5412;59.450;18.124;2024-01-16T03:38:13;-10.60;99.90
10722;DHT22;5412;59.450;18.124;2024-01-16T03:40:38;-10.70;99.90
10722;DHT22;5412;59.450;18.124;2024-01-16T03:43:04;-10.60;99.90
10722;DHT22;5412;59.450;18.124;2024-01-16T03:45:33;-10.60;99.90
10722;DHT22;5412;59.450;18.124;2024-01-16T03:47:59;-10.60;99.90
10722;DHT22;5412;59.450;18.124;2024-01-16T03:50:24;-10.60;99.90
10722;DHT22;5412;59.450;18.124;2024-01-16T03:52:50;-10.60;99.90
10722;DHT22;5412;59.450;18.124;2024-01-16T03:55:16;-10.50;99.90
10722;DHT22;5412;59.450;18.124;2024-01-16T03:57:42;-10.60;99.90
10722;DHT22;5412;59.450;18.124;2024-01-16T04:00:08;-10.60;99.90
10722;DHT22;5412;59.450;18.124;2024-01-16T04:02:38;-10.70;99.90
10722;DHT22;5412;59.450;18.124;2024-01-16T04:05:04;-10.60;99.90
10722;DHT22;5412;59.450;18.124;2024-01-16T04:07:31;-10.70;99.90
10722;DHT22;5412;59.450;18.124;2024-01-16T04:09:56;-10.70;99.90
10722;DHT22;5412;59.450;18.124;2024-01-16T04:12:22;-10.50;99.90
10722;DHT22;5412;59.450;18.124;2024-01-16T04:14:48;-10.30;99.90
10722;DHT22;5412;59.450;18.124;2024-01-16T04:17:13;-10.50;99.90
10722;DHT22;5412;59.450;18.124;2024-01-16T04:19:39;-10.50;99.90
10722;DHT22;5412;59.450;18.124;2024-01-16T04:22:05;-10.50;99.90
10722;DHT22;5412;59.450;18.124;2024-01-16T04:24:31;-10.70;99.90
10722;DHT22;5412;59.450;18.124;2024-01-16T04:26:57;-10.90;99.90
10722;DHT22;5412;59.450;18.124;2024-01-16T04:29:23;-10.80;99.90
10722;DHT22;5412;59.450;18.124;2024-01-16T04:31:48;-10.70;99.90
10722;DHT22;5412;59.450;18.124;2024-01-16T04:34:14;-10.50;99.90
10722;DHT22;5412;59.450;18.124;2024-01-16T04:36:40;-10.60;99.90
10722;DHT22;5412;59.450;18.124;2024-01-16T04:39:05;-10.60;99.90
10722;DHT22;5412;59.450;18.124;2024-01-16T04:41:31;-10.60;99.90
10722;DHT22;5412;59.450;18.124;2024-01-16T04:43:57;-10.50;99.90
10722;DHT22;5412;59.450;18.124;2024-01-16T04:46:22;-10.50;99.90
10722;DHT22;5412;59.450;18.124;2024-01-16T04:48:48;-10.40;99.90
10722;DHT22;5412;59.450;18.124;2024-01-16T04:51:14;-10.20;99.90
10722;DHT22;5412;59.450;18.124;2024-01-16T04:53:40;-10.30;99.90
10722;DHT22;5412;59.450;18.124;2024-01-16T04:56:06;-10.60;99.90
10722;DHT22;5412;59.450;18.124;2024-01-16T04:58:31;-10.50;99.90
10722;DHT22;5412;59.450;18.124;2024-01-16T05:00:58;-10.40;99.90
10722;DHT22;5412;59.450;18.124;2024-01-16T05:03:24;-10.50;99.90
10722;DHT22;5412;59.450;18.124;2024-01-16T05:05:49;-10.60;99.90
10722;DHT22;5412;59.450;18.124;2024-01-16T05:08:15;-10.50;99.90
10722;DHT22;5412;59.450;18.124;2024-01-16T05:10:41;-10.50;99.90
10722;DHT22;5412;59.450;18.124;2024-01-16T05:13:06;-10.60;99.90
10722;DHT22;5412;59.450;18.124;2024-01-16T05:15:32;-10.60;99.90
10722;DHT22;5412;59.450;18.124;2024-01-16T05:17:58;-10.60;99.90
10722;DHT22;5412;59.450;18.124;2024-01-16T05:20:23;-10.50;99.90
10722;DHT22;5412;59.450;18.124;2024-01-16T05:22:49;-10.50;99.90
10722;DHT22;5412;59.450;18.124;2024-01-16T05:25:15;-10.50;99.90
10722;DHT22;5412;59.450;18.124;2024-01-16T05:27:42;-10.70;99.90
10722;DHT22;5412;59.450;18.124;2024-01-16T05:30:09;-10.60;99.90
10722;DHT22;5412;59.450;18.124;2024-01-16T05:32:35;-10.70;99.90
10722;DHT22;5412;59.450;18.124;2024-01-16T05:35:01;-10.70;99.90
10722;DHT22;5412;59.450;18.124;2024-01-16T05:37:27;-10.70;99.90
10722;DHT22;5412;59.450;18.124;2024-01-16T05:39:55;-10.70;99.90
10722;DHT22;5412;59.450;18.124;2024-01-16T05:42:20;-10.70;99.90
10722;DHT22;5412;59.450;18.124;2024-01-16T05:44:46;-10.80;99.90
10722;DHT22;5412;59.450;18.124;2024-01-16T05:47:12;-10.80;99.90
10722;DHT22;5412;59.450;18.124;2024-01-16T05:49:37;-10.80;99.90
10722;DHT22;5412;59.450;18.124;2024-01-16T05:52:03;-10.70;99.90
10722;DHT22;5412;59.450;18.124;2024-01-16T05:54:29;-10.70;99.90
10722;DHT22;5412;59.450;18.124;2024-01-16T05:56:55;-10.70;99.90
10722;DHT22;5412;59.450;18.124;2024-01-16T05:59:20;-10.90;99.90
10722;DHT22;5412;59.450;18.124;2024-01-16T06:01:46;-10.90;99.90
10722;DHT22;5412;59.450;18.124;2024-01-16T06:04:12;-10.80;99.90
10722;DHT22;5412;59.450;18.124;2024-01-16T06:06:37;-10.70;99.90
10722;DHT22;5412;59.450;18.124;2024-01-16T06:09:03;-10.80;99.90
10722;DHT22;5412;59.450;18.124;2024-01-16T06:11:33;-10.70;99.90
10722;DHT22;5412;59.450;18.124;2024-01-16T06:14:00;-10.80;99.90
10722;DHT22;5412;59.450;18.124;2024-01-16T06:16:26;-10.80;99.90
10722;DHT22;5412;59.450;18.124;2024-01-16T06:18:52;-10.70;99.90
10722;DHT22;5412;59.450;18.124;2024-01-16T06:21:17;-10.70;99.90
10722;DHT22;5412;59.450;18.124;2024-01-16T06:23:45;-10.60;99.90
10722;DHT22;5412;59.450;18.124;2024-01-16T06:26:12;-10.70;99.90
10722;DHT22;5412;59.450;18.124;2024-01-16T06:28:38;-10.80;99.90
10722;DHT22;5412;59.450;18.124;2024-01-16T06:31:04;-10.80;99.90
10722;DHT22;5412;59.450;18.124;2024-01-16T06:33:29;-10.80;99.90
10722;DHT22;5412;59.450;18.124;2024-01-16T06:35:55;-10.80;99.90
10722;DHT22;5412;59.450;18.124;2024-01-16T06:38:21;-11.00;99.90
10722;DHT22;5412;59.450;18.124;2024-01-16T06:40:46;-11.00;99.90
10722;DHT22;5412;59.450;18.124;2024-01-16T06:43:14;-11.00;99.90
10722;DHT22;5412;59.450;18.124;2024-01-16T06:45:44;-10.90;99.90
10722;DHT22;5412;59.450;18.124;2024-01-16T06:48:10;-10.80;99.90
10722;DHT22;5412;59.450;18.124;2024-01-16T06:50:36;-10.80;99.90
10722;DHT22;5412;59.450;18.124;2024-01-16T06:53:01;-10.80;99.90
10722;DHT22;5412;59.450;18.124;2024-01-16T06:55:27;-10.90;99.90
10722;DHT22;5412;59.450;18.124;2024-01-16T06:57:53;-11.00;99.90
10722;DHT22;5412;59.450;18.124;2024-01-16T07:00:20;-11.00;99.90
10722;DHT22;5412;59.450;18.124;2024-01-16T07:02:46;-11.00;99.90
10722;DHT22;5412;59.450;18.124;2024-01-16T07:05:12;-10.90;99.90
10722;DHT22;5412;59.450;18.124;2024-01-16T07:07:38;-12.20;99.90
10722;DHT22;5412;59.450;18.124;2024-01-16T07:10:04;-10.90;99.90
10722;DHT22;5412;59.450;18.124;2024-01-16T07:12:33;-10.90;99.90
10722;DHT22;5412;59.450;18.124;2024-01-16T07:14:59;-10.80;99.90
10722;DHT22;5412;59.450;18.124;2024-01-16T07:17:25;-10.80;99.90
10722;DHT22;5412;59.450;18.124;2024-01-16T07:19:51;-10.70;99.90
10722;DHT22;5412;59.450;18.124;2024-01-16T07:22:17;-10.70;99.90
10722;DHT22;5412;59.450;18.124;2024-01-16T07:24:42;-10.70;99.90
10722;DHT22;5412;59.450;18.124;2024-01-16T07:27:08;-10.70;99.90
10722;DHT22;5412;59.450;18.124;2024-01-16T07:29:34;-10.70;99.90
10722;DHT22;5412;59.450;18.124;2024-01-16T07:31:59;-10.70;99.90
10722;DHT22;5412;59.450;18.124;2024-01-16T07:34:25;-10.70;99.90
10722;DHT22;5412;59.450;18.124;2024-01-16T07:36:51;-10.60;99.90
10722;DHT22;5412;59.450;18.124;2024-01-16T07:39:17;-10.60;99.90
10722;DHT22;5412;59.450;18.124;2024-01-16T07:41:42;-10.50;99.90
10722;DHT22;5412;59.450;18.124;2024-01-16T07:44:08;-10.60;99.90
10722;DHT22;5412;59.450;18.124;2024-01-16T07:46:34;-10.40;99.90
10722;DHT22;5412;59.450;18.124;2024-01-16T07:49:00;-10.30;99.90
10722;DHT22;5412;59.450;18.124;2024-01-16T07:51:25;-10.40;99.90
10722;DHT22;5412;59.450;18.124;2024-01-16T07:54:07;-10.30;99.90
10722;DHT22;5412;59.450;18.124;2024-01-16T07:56:34;-10.20;99.90
10722;DHT22;5412;59.450;18.124;2024-01-16T07:58:59;-10.20;99.90
10722;DHT22;5412;59.450;18.124;2024-01-16T08:01:27;-10.30;99.90
10722;DHT22;5412;59.450;18.124;2024-01-16T08:03:57;-10.20;99.90
10722;DHT22;5412;59.450;18.124;2024-01-16T08:06:23;-10.00;99.90
10722;DHT22;5412;59.450;18.124;2024-01-16T08:08:49;-10.00;99.90
10722;DHT22;5412;59.450;18.124;2024-01-16T08:11:15;-10.00;99.90
10722;DHT22;5412;59.450;18.124;2024-01-16T08:13:41;-10.00;99.90
10722;DHT22;5412;59.450;18.124;2024-01-16T08:16:07;-10.10;99.90
10722;DHT22;5412;59.450;18.124;2024-01-16T08:18:34;-10.00;99.90
10722;DHT22;5412;59.450;18.124;2024-01-16T08:20:59;-10.00;99.90
10722;DHT22;5412;59.450;18.124;2024-01-16T08:23:25;-10.00;99.90
10722;DHT22;5412;59.450;18.124;2024-01-16T08:25:51;-10.00;99.90
10722;DHT22;5412;59.450;18.124;2024-01-16T08:28:20;-9.90;99.90
10722;DHT22;5412;59.450;18.124;2024-01-16T08:30:46;-9.80;99.90
10722;DHT22;5412;59.450;18.124;2024-01-16T08:33:12;-9.80;99.90
10722;DHT22;5412;59.450;18.124;2024-01-16T08:35:38;-9.70;99.90
10722;DHT22;5412;59.450;18.124;2024-01-16T08:38:04;-9.60;99.90
10722;DHT22;5412;59.450;18.124;2024-01-16T08:40:30;-9.70;99.90
10722;DHT22;5412;59.450;18.124;2024-01-16T08:42:56;-9.70;99.90
10722;DHT22;5412;59.450;18.124;2024-01-16T08:45:22;-9.70;99.90
10722;DHT22;5412;59.450;18.124;2024-01-16T08:47:48;-9.60;99.90
10722;DHT22;5412;59.450;18.124;2024-01-16T08:50:15;-9.60;99.90
10722;DHT22;5412;59.450;18.124;2024-01-16T08:52:41;-9.60;99.90
10722;DHT22;5412;59.450;18.124;2024-01-16T08:55:08;-9.50;99.90
10722;DHT22;5412;59.450;18.124;2024-01-16T08:57:35;-9.40;99.90
10722;DHT22;5412;59.450;18.124;2024-01-16T09:00:00;-9.40;99.90
10722;DHT22;5412;59.450;18.124;2024-01-16T09:02:28;-9.60;99.90
10722;DHT22;5412;59.450;18.124;2024-01-16T09:04:55;-9.50;99.90
10722;DHT22;5412;59.450;18.124;2024-01-16T09:07:20;-9.40;99.90
10722;DHT22;5412;59.450;18.124;2024-01-16T09:09:46;-9.50;99.90
10722;DHT22;5412;59.450;18.124;2024-01-16T09:12:12;-9.60;99.90
10722;DHT22;5412;59.450;18.124;2024-01-16T09:14:38;-9.40;99.90
10722;DHT22;5412;59.450;18.124;2024-01-16T09:17:03;-9.20;99.90
10722;DHT22;5412;59.450;18.124;2024-01-16T09:19:29;-9.20;99.90
10722;DHT22;5412;59.450;18.124;2024-01-16T09:21:55;-9.10;99.90
10722;DHT22;5412;59.450;18.124;2024-01-16T09:24:21;-9.10;99.90
10722;DHT22;5412;59.450;18.124;2024-01-16T09:26:47;-9.00;99.90
10722;DHT22;5412;59.450;18.124;2024-01-16T09:29:13;-8.90;99.90
10722;DHT22;5412;59.450;18.124;2024-01-16T09:31:40;-8.90;99.90
10722;DHT22;5412;59.450;18.124;2024-01-16T09:34:06;-8.90;99.90
10722;DHT22;5412;59.450;18.124;2024-01-16T09:36:32;-8.80;99.90
10722;DHT22;5412;59.450;18.124;2024-01-16T09:39:01;-9.10;99.90
10722;DHT22;5412;59.450;18.124;2024-01-16T09:41:28;-9.30;99.90
10722;DHT22;5412;59.450;18.124;2024-01-16T09:43:54;-9.30;99.90
10722;DHT22;5412;59.450;18.124;2024-01-16T09:46:22;-9.50;99.90
10722;DHT22;5412;59.450;18.124;2024-01-16T09:48:51;-9.60;99.90
10722;DHT22;5412;59.450;18.124;2024-01-16T09:51:19;-9.50;99.90
10722;DHT22;5412;59.450;18.124;2024-01-16T09:53:45;-9.30;99.90
10722;DHT22;5412;59.450;18.124;2024-01-16T09:56:15;-9.30;99.90
10722;DHT22;5412;59.450;18.124;2024-01-16T09:58:43;-9.30;99.90
10722;DHT22;5412;59.450;18.124;2024-01-16T10:01:09;-9.10;99.90
10722;DHT22;5412;59.450;18.124;2024-01-16T10:03:35;-9.30;99.90
10722;DHT22;5412;59.450;18.124;2024-01-16T10:06:06;-9.10;99.90
10722;DHT22;5412;59.450;18.124;2024-01-16T10:08:32;-8.90;99.90
10722;DHT22;5412;59.450;18.124;2024-01-16T10:10:59;-8.90;99.90
10722;DHT22;5412;59.450;18.124;2024-01-16T10:13:25;-8.80;99.90
10722;DHT22;5412;59.450;18.124;2024-01-16T10:15:52;-8.80;99.90
10722;DHT22;5412;59.450;18.124;2024-01-16T10:18:25;-8.70;99.90
10722;DHT22;5412;59.450;18.124;2024-01-16T10:20:51;-8.60;99.90
10722;DHT22;5412;59.450;18.124;2024-01-16T10:23:25;-8.40;99.90
10722;DHT22;5412;59.450;18.124;2024-01-16T10:26:13;-8.60;99.90
10722;DHT22;5412;59.450;18.124;2024-01-16T10:28:43;-8.50;99.90
10722;DHT22;5412;59.450;18.124;2024-01-16T10:31:12;-8.60;99.90
10722;DHT22;5412;59.450;18.124;2024-01-16T10:33:41;-8.60;99.90
10722;DHT22;5412;59.450;18.124;2024-01-16T10:36:12;-8.50;99.90
10722;DHT22;5412;59.450;18.124;2024-01-16T10:38:40;-8.50;99.90
10722;DHT22;5412;59.450;18.124;2024-01-16T10:43:35;-8.20;99.90
10722;DHT22;5412;59.450;18.124;2024-01-16T10:46:14;-8.10;99.90
10722;DHT22;5412;59.450;18.124;2024-01-16T10:49:03;-8.00;99.90
10722;DHT22;5412;59.450;18.124;2024-01-16T10:51:30;-8.00;99.90
10722;DHT22;5412;59.450;18.124;2024-01-16T10:54:04;-8.10;99.90
10722;DHT22;5412;59.450;18.124;2024-01-16T10:56:33;-8.10;99.90
10722;DHT22;5412;59.450;18.124;2024-01-16T11:01:50;-8.30;99.90
10722;DHT22;5412;59.450;18.124;2024-01-16T11:04:18;-8.40;99.90
10722;DHT22;5412;59.450;18.124;2024-01-16T11:06:47;-8.60;99.90
10722;DHT22;5412;59.450;18.124;2024-01-16T11:09:13;-8.50;99.90
10722;DHT22;5412;59.450;18.124;2024-01-16T11:11:44;-8.40;99.90
10722;DHT22;5412;59.450;18.124;2024-01-16T11:14:12;-8.40;99.90
10722;DHT22;5412;59.450;18.124;2024-01-16T11:16:39;-8.30;99.90
10722;DHT22;5412;59.450;18.124;2024-01-16T11:19:08;-8.20;99.90
10722;DHT22;5412;59.450;18.124;2024-01-16T11:21:35;-8.20;99.90
10722;DHT22;5412;59.450;18.124;2024-01-16T11:24:02;-8.20;99.90
10722;DHT22;5412;59.450;18.124;2024-01-16T11:26:29;-8.30;99.90
10722;DHT22;5412;59.450;18.124;2024-01-16T11:29:01;-8.10;99.90
10722;DHT22;5412;59.450;18.124;2024-01-16T11:31:44;-8.30;99.90
10722;DHT22;5412;59.450;18.124;2024-01-16T11:34:10;-8.40;99.90
10722;DHT22;5412;59.450;18.124;2024-01-16T11:36:51;-8.50;99.90
10722;DHT22;5412;59.450;18.124;2024-01-16T11:39:24;-8.60;99.90
10722;DHT22;5412;59.450;18.124;2024-01-16T11:41:57;-8.40;99.90
10722;DHT22;5412;59.450;18.124;2024-01-16T11:44:48;-8.40;99.90
10722;DHT22;5412;59.450;18.124;2024-01-16T11:47:23;-8.60;99.90
10722;DHT22;5412;59.450;18.124;2024-01-16T11:50:09;-8.70;99.90
10722;DHT22;5412;59.450;18.124;2024-01-16T11:52:42;-8.70;99.90
10722;DHT22;5412;59.450;18.124;2024-01-16T11:55:29;-8.50;99.90
10722;DHT22;5412;59.450;18.124;2024-01-16T12:00:33;-8.20;99.90
10722;DHT22;5412;59.450;18.124;2024-01-16T12:03:04;-8.10;99.90
10722;DHT22;5412;59.450;18.124;2024-01-16T12:05:31;-8.10;99.90
10722;DHT22;5412;59.450;18.124;2024-01-16T12:07:57;-8.20;99.90
10722;DHT22;5412;59.450;18.124;2024-01-16T12:10:24;-8.10;99.90
10722;DHT22;5412;59.450;18.124;2024-01-16T12:12:51;-8.10;99.90
10722;DHT22;5412;59.450;18.124;2024-01-16T12:15:20;-8.20;99.90
10722;DHT22;5412;59.450;18.124;2024-01-16T12:18:02;-8.10;99.90
10722;DHT22;5412;59.450;18.124;2024-01-16T12:20:33;-8.20;99.90
10722;DHT22;5412;59.450;18.124;2024-01-16T12:23:02;-8.30;99.90
10722;DHT22;5412;59.450;18.124;2024-01-16T12:25:30;-8.50;99.90
10722;DHT22;5412;59.450;18.124;2024-01-16T12:28:00;-8.70;99.90
10722;DHT22;5412;59.450;18.124;2024-01-16T12:30:27;-8.50;99.90
10722;DHT22;5412;59.450;18.124;2024-01-16T12:35:30;-8.90;99.90
10722;DHT22;5412;59.450;18.124;2024-01-16T12:38:02;-9.00;99.90
10722;DHT22;5412;59.450;18.124;2024-01-16T12:40:29;-9.00;99.90
10722;DHT22;5412;59.450;18.124;2024-01-16T12:42:55;-8.90;99.90
10722;DHT22;5412;59.450;18.124;2024-01-16T12:45:22;-8.80;99.90
10722;DHT22;5412;59.450;18.124;2024-01-16T12:47:54;-8.80;99.90
10722;DHT22;5412;59.450;18.124;2024-01-16T12:50:24;-8.70;99.90
10722;DHT22;5412;59.450;18.124;2024-01-16T12:53:06;-8.60;99.90
10722;DHT22;5412;59.450;18.124;2024-01-16T12:55:34;-8.60;99.90
10722;DHT22;5412;59.450;18.124;2024-01-16T12:58:22;-8.80;99.90
10722;DHT22;5412;59.450;18.124;2024-01-16T13:00:54;-8.70;99.90
10722;DHT22;5412;59.450;18.124;2024-01-16T13:03:24;-8.60;99.90
10722;DHT22;5412;59.450;18.124;2024-01-16T13:05:56;-8.70;99.90
10722;DHT22;5412;59.450;18.124;2024-01-16T13:08:22;-8.50;99.90
10722;DHT22;5412;59.450;18.124;2024-01-16T13:11:07;-8.40;99.90
10722;DHT22;5412;59.450;18.124;2024-01-16T13:13:33;-8.30;99.90
10722;DHT22;5412;59.450;18.124;2024-01-16T13:16:00;-8.50;99.90
10722;DHT22;5412;59.450;18.124;2024-01-16T13:18:28;-8.50;99.90
10722;DHT22;5412;59.450;18.124;2024-01-16T13:20:56;-8.20;99.90
10722;DHT22;5412;59.450;18.124;2024-01-16T13:23:23;-8.40;99.90
10722;DHT22;5412;59.450;18.124;2024-01-16T13:25:50;-8.50;99.90
10722;DHT22;5412;59.450;18.124;2024-01-16T13:28:18;-8.00;99.90
10722;DHT22;5412;59.450;18.124;2024-01-16T13:30:45;-8.20;99.90
10722;DHT22;5412;59.450;18.124;2024-01-16T13:33:12;-8.60;99.90
10722;DHT22;5412;59.450;18.124;2024-01-16T13:35:43;-8.60;99.90
10722;DHT22;5412;59.450;18.124;2024-01-16T13:38:09;-8.70;99.90
10722;DHT22;5412;59.450;18.124;2024-01-16T13:40:36;-8.70;99.90
10722;DHT22;5412;59.450;18.124;2024-01-16T13:43:05;-8.60;99.90
10722;DHT22;5412;59.450;18.124;2024-01-16T13:45:32;-8.60;99.90
10722;DHT22;5412;59.450;18.124;2024-01-16T13:47:58;-8.60;99.90
10722;DHT22;5412;59.450;18.124;2024-01-16T13:50:26;-8.70;99.90
10722;DHT22;5412;59.450;18.124;2024-01-16T13:52:52;-8.70;99.90
10722;DHT22;5412;59.450;18.124;2024-01-16T13:55:19;-8.70;99.90
10722;DHT22;5412;59.450;18.124;2024-01-16T13:57:45;-8.60;99.90
10722;DHT22;5412;59.450;18.124;2024-01-16T14:00:12;-8.70;99.90
10722;DHT22;5412;59.450;18.124;2024-01-16T14:02:39;-8.60;99.90
10722;DHT22;5412;59.450;18.124;2024-01-16T14:05:12;-8.90;99.90
10722;DHT22;5412;59.450;18.124;2024-01-16T14:07:43;-9.00;99.90
10722;DHT22;5412;59.450;18.124;2024-01-16T14:10:12;-9.30;99.90
10722;DHT22;5412;59.450;18.124;2024-01-16T14:12:42;-9.40;99.90
10722;DHT22;5412;59.450;18.124;2024-01-16T14:15:09;-9.40;99.90
10722;DHT22;5412;59.450;18.124;2024-01-16T14:17:46;-9.30;99.90
10722;DHT22;5412;59.450;18.124;2024-01-16T14:20:13;-9.30;99.90
10722;DHT22;5412;59.450;18.124;2024-01-16T14:22:39;-9.30;99.90
10722;DHT22;5412;59.450;18.124;2024-01-16T14:25:07;-9.60;99.90
10722;DHT22;5412;59.450;18.124;2024-01-16T14:27:42;-9.40;99.90
10722;DHT22;5412;59.450;18.124;2024-01-16T14:30:12;-9.50;99.90
10722;DHT22;5412;59.450;18.124;2024-01-16T14:32:43;-9.40;99.90
10722;DHT22;5412;59.450;18.124;2024-01-16T14:35:11;-9.60;99.90
10722;DHT22;5412;59.450;18.124;2024-01-16T14:37:41;-9.60;99.90
10722;DHT22;5412;59.450;18.124;2024-01-16T14:40:07;-9.60;99.90
10722;DHT22;5412;59.450;18.124;2024-01-16T14:42:41;-9.50;99.90
10722;DHT22;5412;59.450;18.124;2024-01-16T14:45:08;-9.40;99.90
10722;DHT22;5412;59.450;18.124;2024-01-16T14:47:37;-9.40;99.90
10722;DHT22;5412;59.450;18.124;2024-01-16T14:50:03;-9.50;99.90
10722;DHT22;5412;59.450;18.124;2024-01-16T14:52:30;-9.60;99.90
10722;DHT22;5412;59.450;18.124;2024-01-16T14:54:58;-9.50;99.90
10722;DHT22;5412;59.450;18.124;2024-01-16T14:57:25;-9.60;99.90
10722;DHT22;5412;59.450;18.124;2024-01-16T14:59:51;-9.40;99.90
10722;DHT22;5412;59.450;18.124;2024-01-16T15:02:16;-9.50;99.90
10722;DHT22;5412;59.450;18.124;2024-01-16T15:04:42;-9.40;99.90
10722;DHT22;5412;59.450;18.124;2024-01-16T15:07:09;-9.70;99.90
10722;DHT22;5412;59.450;18.124;2024-01-16T15:09:35;-9.50;99.90
10722;DHT22;5412;59.450;18.124;2024-01-16T15:12:04;-9.60;99.90
10722;DHT22;5412;59.450;18.124;2024-01-16T15:14:31;-9.80;99.90
10722;DHT22;5412;59.450;18.124;2024-01-16T15:16:58;-9.80;99.90
10722;DHT22;5412;59.450;18.124;2024-01-16T15:19:23;-9.80;99.90
10722;DHT22;5412;59.450;18.124;2024-01-16T15:21:49;-9.80;99.90
10722;DHT22;5412;59.450;18.124;2024-01-16T15:24:15;-10.00;99.90
10722;DHT22;5412;59.450;18.124;2024-01-16T15:26:54;-9.80;99.90
10722;DHT22;5412;59.450;18.124;2024-01-16T15:29:21;-9.80;99.90
10722;DHT22;5412;59.450;18.124;2024-01-16T15:31:47;-9.70;99.90
10722;DHT22;5412;59.450;18.124;2024-01-16T15:34:13;-9.70;99.90
10722;DHT22;5412;59.450;18.124;2024-01-16T15:36:39;-9.70;99.90
10722;DHT22;5412;59.450;18.124;2024-01-16T15:39:05;-9.80;99.90